Time;durP1;ratioP1;P1;durP2;ratioP2;P2;SDS_P1;SDS_P2;PMS_P1;PMS_P2;Temp;Humidity;BMP_temperature;BMP_pressure;BME280_temperature;BME280_humidity;BME280_pressure;Samples;Min_cycle;Max_cycle;Signal;HPM_P1;HPM_P2
2023/01/02 00:00:10;;;;;;;53.35;18.40;;;;;;;;;;5053426;28;20061;-42
2023/01/02 00:02:38;;;;;;;59.97;18.77;;;;;;;;;;5053590;28;20045;-41
2023/01/02 00:05:04;;;;;;;52.72;17.95;;;;;;;;;;5053531;28;20806;-42
2023/01/02 00:07:30;;;;;;;53.03;19.35;;;;;;;;;;5053555;28;20475;-41
2023/01/02 00:09:55;;;;;;;57.38;19.63;;;;;;;;;;5053444;28;20029;-41
2023/01/02 00:12:20;;;;;;;57.10;21.08;;;;;;;;;;5052937;28;20027;-41
2023/01/02 00:14:46;;;;;;;48.85;18.50;;;;;;;;;;5053390;28;20514;-41
2023/01/02 00:17:11;;;;;;;61.78;20.25;;;;;;;;;;5053276;28;20025;-41
2023/01/02 00:19:36;;;;;;;49.58;17.42;;;;;;;;;;5053776;28;20025;-42
2023/01/02 00:22:02;;;;;;;48.13;16.80;;;;;;;;;;5053405;28;20375;-41
2023/01/02 00:24:28;;;;;;;47.15;18.75;;;;;;;;;;5053138;28;20031;-42
2023/01/02 00:26:53;;;;;;;40.28;15.45;;;;;;;;;;5053323;28;20029;-42
2023/01/02 00:29:18;;;;;;;43.35;19.67;;;;;;;;;;5053036;28;20037;-41
2023/01/02 00:31:44;;;;;;;44.67;18.23;;;;;;;;;;5053069;28;20036;-41
2023/01/02 00:34:09;;;;;;;35.53;16.05;;;;;;;;;;5052788;28;20052;-42
2023/01/02 00:36:34;;;;;;;54.97;20.30;;;;;;;;;;5052944;28;20058;-41
2023/01/02 00:39:00;;;;;;;45.65;15.60;;;;;;;;;;5053173;28;20048;-41
2023/01/02 00:41:25;;;;;;;37.47;17.50;;;;;;;;;;5052773;28;20025;-42
2023/01/02 00:43:50;;;;;;;52.20;18.35;;;;;;;;;;5053053;28;20131;-42
2023/01/02 00:46:17;;;;;;;58.92;20.25;;;;;;;;;;5052667;28;20028;-42
2023/01/02 00:48:43;;;;;;;56.28;18.88;;;;;;;;;;5052901;28;20093;-42
2023/01/02 00:51:08;;;;;;;41.47;17.38;;;;;;;;;;5052886;28;20508;-42
2023/01/02 00:53:34;;;;;;;48.65;18.25;;;;;;;;;;5052582;28;20127;-41
2023/01/02 00:55:59;;;;;;;41.83;17.25;;;;;;;;;;5052703;28;20021;-41
2023/01/02 00:58:24;;;;;;;53.38;18.55;;;;;;;;;;5052434;28;20475;-42
2023/01/02 01:00:50;;;;;;;46.90;15.70;;;;;;;;;;5052222;28;20063;-42
2023/01/02 01:03:15;;;;;;;51.63;16.75;;;;;;;;;;5052287;28;20067;-41
2023/01/02 01:05:41;;;;;;;41.70;17.88;;;;;;;;;;5052372;28;20491;-41
2023/01/02 01:08:06;;;;;;;54.13;17.02;;;;;;;;;;5052300;28;20029;-42
2023/01/02 01:10:32;;;;;;;41.75;15.85;;;;;;;;;;5052214;28;20025;-41
2023/01/02 01:12:57;;;;;;;46.67;17.65;;;;;;;;;;5052187;28;20039;-41
2023/01/02 01:15:22;;;;;;;40.60;17.00;;;;;;;;;;5052418;28;20112;-42
2023/01/02 01:17:48;;;;;;;41.65;17.33;;;;;;;;;;5052178;28;20033;-41
2023/01/02 01:20:13;;;;;;;37.88;15.88;;;;;;;;;;5052343;28;20025;-42
2023/01/02 01:22:38;;;;;;;44.78;16.33;;;;;;;;;;5051220;28;20123;-42
2023/01/02 01:25:04;;;;;;;37.60;16.38;;;;;;;;;;5052250;28;20024;-42
2023/01/02 01:27:30;;;;;;;48.45;14.60;;;;;;;;;;5051867;28;20426;-41
2023/01/02 01:29:55;;;;;;;38.40;15.80;;;;;;;;;;5051970;28;20013;-41
2023/01/02 01:32:20;;;;;;;38.47;13.50;;;;;;;;;;5052093;28;20040;-41
2023/01/02 01:34:46;;;;;;;38.33;15.73;;;;;;;;;;5052152;28;20079;-41
2023/01/02 01:37:11;;;;;;;46.67;19.67;;;;;;;;;;5051929;28;20029;-41
2023/01/02 01:39:37;;;;;;;48.08;16.20;;;;;;;;;;5051803;28;20426;-42
2023/01/02 01:42:03;;;;;;;35.28;13.57;;;;;;;;;;5051706;28;20040;-42
2023/01/02 01:45:00;;;;;;;46.50;15.32;;;;;;;;;;5051630;28;20402;-41
2023/01/02 01:47:36;;;;;;;43.35;14.20;;;;;;;;;;5039412;28;20052;-42
2023/01/02 01:50:16;;;;;;;48.03;15.60;;;;;;;;;;5051718;28;20047;-42
2023/01/02 01:52:44;;;;;;;43.10;15.45;;;;;;;;;;5051843;28;20033;-41
2023/01/02 01:55:10;;;;;;;50.92;18.25;;;;;;;;;;5051416;28;20120;-42
2023/01/02 01:57:38;;;;;;;48.50;15.20;;;;;;;;;;5051517;28;20108;-41
2023/01/02 02:00:04;;;;;;;35.20;14.75;;;;;;;;;;5051263;28;20039;-41
2023/01/02 02:02:32;;;;;;;52.20;15.55;;;;;;;;;;5051316;28;20136;-42
2023/01/02 02:04:58;;;;;;;40.03;15.88;;;;;;;;;;5050195;28;20515;-41
2023/01/02 02:07:24;;;;;;;47.33;15.40;;;;;;;;;;5051512;28;20032;-42
2023/01/02 02:09:51;;;;;;;50.03;16.25;;;;;;;;;;5051636;28;20017;-42
2023/01/02 02:12:17;;;;;;;43.10;16.27;;;;;;;;;;5051281;28;20471;-42
2023/01/02 02:14:42;;;;;;;42.15;15.50;;;;;;;;;;5051158;28;20056;-42
2023/01/02 02:17:28;;;;;;;46.03;14.65;;;;;;;;;;5050157;28;20044;-41
2023/01/02 02:20:11;;;;;;;45.33;15.27;;;;;;;;;;5051141;28;20105;-41
2023/01/02 02:22:56;;;;;;;46.85;15.90;;;;;;;;;;5051213;28;20072;-42
2023/01/02 02:25:36;;;;;;;48.20;16.48;;;;;;;;;;5051129;28;20083;-42
2023/01/02 02:28:11;;;;;;;46.58;16.83;;;;;;;;;;5051186;28;20805;-41
2023/01/02 02:30:40;;;;;;;59.80;15.80;;;;;;;;;;5051243;28;20029;-42
2023/01/02 02:33:05;;;;;;;48.22;16.65;;;;;;;;;;5051075;28;20048;-41
2023/01/02 02:35:39;;;;;;;53.90;18.27;;;;;;;;;;5055081;28;20072;-42
2023/01/02 02:38:10;;;;;;;43.15;15.25;;;;;;;;;;5055218;28;20117;-41
2023/01/02 02:40:38;;;;;;;44.78;15.80;;;;;;;;;;5055445;28;20064;-42
2023/01/02 02:43:24;;;;;;;49.58;15.13;;;;;;;;;;5053776;28;20029;-42
2023/01/02 02:45:52;;;;;;;55.92;17.83;;;;;;;;;;5054658;28;20041;-41
2023/01/02 02:48:18;;;;;;;46.17;15.50;;;;;;;;;;5054823;28;20031;-42
2023/01/02 02:50:48;;;;;;;51.55;17.45;;;;;;;;;;5054976;28;20021;-41
2023/01/02 02:53:19;;;;;;;43.95;16.73;;;;;;;;;;5054818;28;20086;-42
2023/01/02 02:55:47;;;;;;;40.22;17.95;;;;;;;;;;5054800;28;20554;-42
2023/01/02 02:58:13;;;;;;;35.97;14.60;;;;;;;;;;5053542;28;20017;-41
2023/01/02 03:00:38;;;;;;;38.83;16.13;;;;;;;;;;5054553;28;20059;-41
2023/01/02 03:03:17;;;;;;;49.15;17.42;;;;;;;;;;5054888;28;20036;-42
2023/01/02 03:05:45;;;;;;;47.78;12.88;;;;;;;;;;5054587;28;20471;-41
2023/01/02 03:08:29;;;;;;;55.33;17.60;;;;;;;;;;5054571;28;20498;-42
2023/01/02 03:10:56;;;;;;;44.40;15.68;;;;;;;;;;5054790;28;20025;-42
2023/01/02 03:13:27;;;;;;;47.72;12.98;;;;;;;;;;5054795;28;20237;-42
2023/01/02 03:16:05;;;;;;;48.80;17.77;;;;;;;;;;5054661;28;20037;-42
2023/01/02 03:18:56;;;;;;;49.25;16.48;;;;;;;;;;5054404;28;20033;-41
2023/01/02 03:21:26;;;;;;;50.75;15.23;;;;;;;;;;5052994;28;20067;-42
2023/01/02 03:23:52;;;;;;;50.28;17.55;;;;;;;;;;5054362;28;20032;-42
2023/01/02 03:26:20;;;;;;;45.33;15.60;;;;;;;;;;5054514;28;20025;-41
2023/01/02 03:28:47;;;;;;;44.25;16.17;;;;;;;;;;5054271;28;20029;-41
2023/01/02 03:31:16;;;;;;;49.63;15.52;;;;;;;;;;5054074;28;20021;-41
2023/01/02 03:33:43;;;;;;;54.05;17.63;;;;;;;;;;5054168;28;20086;-42
2023/01/02 03:36:11;;;;;;;54.47;16.95;;;;;;;;;;5054219;28;20047;-42
2023/01/02 03:38:49;;;;;;;46.42;17.45;;;;;;;;;;5054240;28;20028;-42
2023/01/02 03:41:26;;;;;;;41.03;16.30;;;;;;;;;;5053884;28;20475;-41
2023/01/02 03:43:53;;;;;;;45.08;17.38;;;;;;;;;;5054047;28;20563;-42
2023/01/02 03:46:54;;;;;;;36.53;15.77;;;;;;;;;;5052889;28;20009;-41
2023/01/02 03:49:19;;;;;;;42.13;14.27;;;;;;;;;;5031405;28;20049;-42
2023/01/02 03:51:45;;;;;;;46.22;14.75;;;;;;;;;;5049086;28;20026;-42
2023/01/02 03:54:10;;;;;;;37.28;15.32;;;;;;;;;;5053913;28;20348;-42
2023/01/02 03:56:40;;;;;;;26.05;13.80;;;;;;;;;;5053657;28;20062;-42
2023/01/02 03:59:09;;;;;;;32.80;14.23;;;;;;;;;;5053677;28;20463;-42
2023/01/02 04:01:43;;;;;;;30.73;13.65;;;;;;;;;;5053400;28;20488;-41
2023/01/02 04:04:32;;;;;;;35.17;14.18;;;;;;;;;;5053564;28;20035;-42
2023/01/02 04:06:59;;;;;;;33.22;14.85;;;;;;;;;;5042940;28;20056;-44
2023/01/02 04:09:27;;;;;;;39.38;15.05;;;;;;;;;;5053371;28;20463;-41
2023/01/02 04:11:58;;;;;;;34.45;14.35;;;;;;;;;;5053672;28;20064;-41
2023/01/02 04:14:42;;;;;;;33.63;12.93;;;;;;;;;;5053241;28;20025;-42
2023/01/02 04:17:08;;;;;;;31.17;13.70;;;;;;;;;;5053699;28;20033;-41
2023/01/02 04:19:40;;;;;;;37.72;14.45;;;;;;;;;;5053294;28;20127;-41
2023/01/02 04:22:07;;;;;;;54.35;18.60;;;;;;;;;;5053051;28;20037;-42
2023/01/02 04:24:34;;;;;;;46.78;14.43;;;;;;;;;;5051870;28;20024;-41
2023/01/02 04:27:26;;;;;;;51.58;17.00;;;;;;;;;;5053074;28;20032;-41
2023/01/02 04:29:52;;;;;;;33.47;15.13;;;;;;;;;;5051807;28;20133;-41
2023/01/02 04:32:17;;;;;;;33.50;15.98;;;;;;;;;;5052978;28;20096;-41
2023/01/02 04:34:44;;;;;;;34.42;13.60;;;;;;;;;;5053237;28;20044;-41
2023/01/02 04:37:24;;;;;;;40.20;14.05;;;;;;;;;;5052882;28;20221;-41
2023/01/02 04:39:50;;;;;;;46.33;14.50;;;;;;;;;;5053258;28;20041;-41
2023/01/02 04:42:15;;;;;;;51.50;16.83;;;;;;;;;;5052926;28;20047;-41
2023/01/02 04:44:41;;;;;;;43.95;14.25;;;;;;;;;;5052802;28;20075;-41
2023/01/02 04:47:07;;;;;;;30.27;12.18;;;;;;;;;;5051828;28;20028;-42
2023/01/02 04:49:33;;;;;;;41.85;14.85;;;;;;;;;;5052605;28;20108;-41
2023/01/02 04:51:58;;;;;;;41.83;15.65;;;;;;;;;;5052700;28;20095;-42
2023/01/02 04:54:23;;;;;;;41.78;15.50;;;;;;;;;;5052546;28;20100;-41
2023/01/02 04:56:49;;;;;;;42.53;16.05;;;;;;;;;;5052796;28;20062;-42
2023/01/02 04:59:14;;;;;;;37.25;17.30;;;;;;;;;;5052464;28;20528;-42
2023/01/02 05:01:39;;;;;;;39.13;13.15;;;;;;;;;;5052315;28;20049;-41
2023/01/02 05:04:05;;;;;;;32.88;14.63;;;;;;;;;;5052729;28;20032;-41
2023/01/02 05:06:31;;;;;;;36.55;15.10;;;;;;;;;;5051344;28;20021;-42
2023/01/02 05:08:57;;;;;;;45.88;14.88;;;;;;;;;;5052321;28;20037;-41
2023/01/02 05:11:22;;;;;;;40.65;13.77;;;;;;;;;;5052480;28;20021;-41
2023/01/02 05:13:47;;;;;;;36.72;12.95;;;;;;;;;;5052309;28;20586;-41
2023/01/02 05:16:13;;;;;;;41.10;15.98;;;;;;;;;;5052171;28;20024;-42
2023/01/02 05:18:38;;;;;;;44.90;13.88;;;;;;;;;;5052188;28;20025;-42
2023/01/02 05:23:47;;;;;;;36.30;14.27;;;;;;;;;;5051992;28;20071;-42
2023/01/02 05:23:54;;;;;;;29.83;14.23;;;;;;;;;;5052342;28;20041;-42
2023/01/02 05:26:19;;;;;;;38.22;14.57;;;;;;;;;;5050623;28;20521;-41
2023/01/02 05:28:45;;;;;;;43.35;16.50;;;;;;;;;;5052071;28;20731;-42
2023/01/02 05:31:10;;;;;;;35.47;13.93;;;;;;;;;;5052204;28;20009;-42
2023/01/02 05:33:36;;;;;;;42.72;15.93;;;;;;;;;;5050658;28;20064;-41
2023/01/02 05:36:06;;;;;;;29.25;13.85;;;;;;;;;;5051928;28;20013;-42
2023/01/02 05:38:31;;;;;;;36.72;13.90;;;;;;;;;;5052011;28;20087;-42
2023/01/02 05:41:03;;;;;;;39.47;15.52;;;;;;;;;;5052032;28;20021;-41
2023/01/02 05:43:32;;;;;;;37.80;14.90;;;;;;;;;;5051621;28;20102;-42
2023/01/02 05:45:58;;;;;;;41.90;15.07;;;;;;;;;;5051632;28;20031;-41
2023/01/02 05:48:23;;;;;;;40.88;17.00;;;;;;;;;;5051847;28;20029;-45
2023/01/02 05:50:49;;;;;;;39.05;15.05;;;;;;;;;;5051729;28;20348;-41
2023/01/02 05:53:15;;;;;;;46.47;17.35;;;;;;;;;;5051531;28;20029;-41
2023/01/02 05:55:41;;;;;;;38.20;17.40;;;;;;;;;;5051762;28;20023;-42
2023/01/02 05:58:06;;;;;;;49.08;17.00;;;;;;;;;;5051617;28;20108;-41
2023/01/02 06:00:31;;;;;;;41.33;16.38;;;;;;;;;;5051391;28;20490;-41
2023/01/02 06:02:57;;;;;;;35.92;14.93;;;;;;;;;;5051416;28;20037;-41
2023/01/02 06:05:22;;;;;;;33.65;12.88;;;;;;;;;;5051594;28;20033;-42
2023/01/02 06:07:47;;;;;;;38.95;15.02;;;;;;;;;;5051624;28;20033;-42
2023/01/02 06:10:13;;;;;;;39.00;13.57;;;;;;;;;;5051213;28;20464;-41
2023/01/02 06:12:38;;;;;;;38.45;16.45;;;;;;;;;;5051638;28;20025;-41
2023/01/02 06:15:04;;;;;;;46.60;14.77;;;;;;;;;;5051169;28;20371;-44
2023/01/02 06:17:29;;;;;;;47.83;18.48;;;;;;;;;;5051464;28;20028;-41
2023/01/02 06:19:54;;;;;;;37.53;15.18;;;;;;;;;;5051266;28;20021;-42
2023/01/02 06:22:20;;;;;;;41.72;13.35;;;;;;;;;;5051349;28;20499;-43
2023/01/02 06:24:45;;;;;;;33.90;15.95;;;;;;;;;;5051263;28;20021;-42
2023/01/02 06:27:10;;;;;;;40.65;14.82;;;;;;;;;;5051280;28;20056;-42
2023/01/02 06:29:36;;;;;;;40.42;16.02;;;;;;;;;;5051072;28;20450;-42
2023/01/02 06:32:01;;;;;;;36.05;15.10;;;;;;;;;;5049873;28;20095;-42
2023/01/02 06:34:26;;;;;;;48.90;14.95;;;;;;;;;;5051329;28;20482;-41
2023/01/02 06:36:52;;;;;;;35.65;15.65;;;;;;;;;;5051137;28;20506;-41
2023/01/02 06:39:17;;;;;;;39.83;14.82;;;;;;;;;;5051058;28;20049;-41
2023/01/02 06:41:43;;;;;;;54.40;15.38;;;;;;;;;;5051556;28;20041;-42
2023/01/02 06:44:11;;;;;;;37.53;13.75;;;;;;;;;;5051300;28;20785;-42
2023/01/02 06:46:36;;;;;;;39.28;15.23;;;;;;;;;;5050983;28;20087;-42
2023/01/02 06:49:01;;;;;;;36.40;15.63;;;;;;;;;;5049789;28;20020;-42
2023/01/02 06:51:27;;;;;;;44.78;17.77;;;;;;;;;;5050843;28;20043;-41
2023/01/02 06:53:52;;;;;;;42.17;16.42;;;;;;;;;;5051529;28;20028;-41
2023/01/02 06:56:19;;;;;;;45.67;17.70;;;;;;;;;;5050976;28;20036;-42
2023/01/02 06:58:44;;;;;;;39.53;14.85;;;;;;;;;;5050950;28;20032;-42
2023/01/02 07:01:11;;;;;;;36.03;15.23;;;;;;;;;;5050890;28;20061;-42
2023/01/02 07:03:37;;;;;;;37.47;14.43;;;;;;;;;;5050908;28;20471;-42
2023/01/02 07:06:07;;;;;;;36.38;17.02;;;;;;;;;;5050832;28;20029;-42
2023/01/02 07:08:33;;;;;;;39.83;15.23;;;;;;;;;;5051040;28;20033;-42
2023/01/02 07:11:05;;;;;;;38.40;16.33;;;;;;;;;;5051109;28;20028;-42
2023/01/02 07:13:30;;;;;;;33.22;15.98;;;;;;;;;;5050992;28;20059;-42
2023/01/02 07:15:56;;;;;;;36.28;18.25;;;;;;;;;;5051038;28;20052;-42
2023/01/02 07:18:21;;;;;;;43.63;16.83;;;;;;;;;;5050672;28;20116;-42
2023/01/02 07:20:52;;;;;;;41.65;15.13;;;;;;;;;;5051868;28;20024;-41
2023/01/02 07:23:17;;;;;;;37.85;14.95;;;;;;;;;;5054258;28;20041;-41
2023/01/02 07:25:43;;;;;;;40.38;16.85;;;;;;;;;;5054298;28;20138;-42
2023/01/02 07:28:08;;;;;;;46.65;16.45;;;;;;;;;;5054340;28;20029;-41
2023/01/02 07:30:33;;;;;;;41.03;16.08;;;;;;;;;;5054245;28;20017;-43
2023/01/02 07:32:59;;;;;;;43.30;15.23;;;;;;;;;;5054156;28;20183;-41
2023/01/02 07:35:24;;;;;;;25.65;12.75;;;;;;;;;;5054066;28;20016;-42
2023/01/02 07:37:50;;;;;;;42.85;17.30;;;;;;;;;;5054126;28;20048;-42
2023/01/02 07:40:15;;;;;;;30.15;13.13;;;;;;;;;;5054213;28;20096;-42
2023/01/02 07:42:40;;;;;;;40.78;14.38;;;;;;;;;;5054163;28;20067;-41
2023/01/02 07:45:06;;;;;;;37.90;16.00;;;;;;;;;;5054240;28;20031;-41
2023/01/02 07:47:32;;;;;;;40.25;15.13;;;;;;;;;;5054026;28;20356;-42
2023/01/02 07:49:57;;;;;;;33.17;15.00;;;;;;;;;;5053914;28;20374;-41
2023/01/02 07:52:23;;;;;;;37.13;14.63;;;;;;;;;;5053745;28;20040;-42
2023/01/02 07:54:48;;;;;;;31.20;13.55;;;;;;;;;;5053981;28;20028;-41
2023/01/02 07:57:14;;;;;;;27.40;13.48;;;;;;;;;;5053991;28;20036;-41
2023/01/02 07:59:40;;;;;;;33.55;13.63;;;;;;;;;;5053674;28;20525;-42
2023/01/02 08:02:05;;;;;;;36.60;14.70;;;;;;;;;;5053416;28;20041;-41
2023/01/02 08:04:31;;;;;;;28.85;14.00;;;;;;;;;;5053465;28;20045;-42
2023/01/02 08:06:56;;;;;;;29.77;12.98;;;;;;;;;;5053809;28;20060;-42
2023/01/02 08:09:22;;;;;;;24.27;12.50;;;;;;;;;;5053466;28;20025;-42
2023/01/02 08:11:47;;;;;;;37.80;17.02;;;;;;;;;;5053395;28;20029;-42
2023/01/02 08:14:12;;;;;;;35.13;14.20;;;;;;;;;;5053772;28;20028;-41
2023/01/02 08:16:38;;;;;;;31.70;14.13;;;;;;;;;;5053192;28;20029;-42
2023/01/02 08:19:03;;;;;;;35.50;12.90;;;;;;;;;;5053612;28;20024;-42
2023/01/02 08:21:29;;;;;;;30.90;12.95;;;;;;;;;;5053208;28;20492;-41
2023/01/02 08:23:54;;;;;;;23.50;12.60;;;;;;;;;;5053180;28;20020;-42
2023/01/02 08:26:19;;;;;;;26.88;13.85;;;;;;;;;;5053136;28;20033;-41
2023/01/02 08:28:45;;;;;;;27.70;14.07;;;;;;;;;;5053195;28;20058;-42
2023/01/02 08:31:12;;;;;;;35.75;13.35;;;;;;;;;;5052812;28;20067;-41
2023/01/02 08:33:38;;;;;;;34.17;15.85;;;;;;;;;;5052969;28;20096;-41
2023/01/02 08:36:03;;;;;;;22.65;12.75;;;;;;;;;;5053222;28;20071;-42
2023/01/02 08:38:29;;;;;;;32.50;15.45;;;;;;;;;;5053114;28;20017;-42
2023/01/02 08:40:56;;;;;;;27.27;14.40;;;;;;;;;;5052985;28;20517;-42
2023/01/02 08:43:21;;;;;;;31.75;16.15;;;;;;;;;;5052724;28;20062;-41
2023/01/02 08:45:47;;;;;;;27.35;14.48;;;;;;;;;;5052805;28;20479;-42
2023/01/02 08:48:12;;;;;;;28.77;13.20;;;;;;;;;;5053108;28;20028;-41
2023/01/02 08:50:38;;;;;;;30.70;14.88;;;;;;;;;;5052664;28;20103;-42
2023/01/02 08:53:03;;;;;;;27.42;14.32;;;;;;;;;;5052956;28;20020;-42
2023/01/02 08:55:28;;;;;;;36.00;15.93;;;;;;;;;;5052859;28;20090;-41
2023/01/02 08:57:54;;;;;;;24.58;13.80;;;;;;;;;;5052685;28;20016;-48
2023/01/02 09:00:19;;;;;;;26.35;13.40;;;;;;;;;;5052392;28;20136;-41
2023/01/02 09:02:45;;;;;;;30.70;14.70;;;;;;;;;;5052432;28;20051;-42
2023/01/02 09:05:10;;;;;;;31.90;13.68;;;;;;;;;;5051143;28;20087;-42
2023/01/02 09:07:35;;;;;;;25.65;13.80;;;;;;;;;;5051056;28;20029;-42
2023/01/02 09:10:01;;;;;;;24.88;13.68;;;;;;;;;;5052380;28;20076;-41
2023/01/02 09:12:26;;;;;;;26.35;13.40;;;;;;;;;;5052269;28;20029;-41
2023/01/02 09:14:52;;;;;;;22.95;12.40;;;;;;;;;;5052222;28;20029;-42
2023/01/02 09:17:17;;;;;;;26.30;12.57;;;;;;;;;;5052171;28;20521;-42
2023/01/02 09:19:43;;;;;;;24.92;12.77;;;;;;;;;;5052129;28;20033;-42
2023/01/02 09:22:09;;;;;;;20.80;10.43;;;;;;;;;;5052337;28;20033;-42
2023/01/02 09:24:35;;;;;;;23.27;12.70;;;;;;;;;;5052064;28;20028;-42
2023/01/02 09:27:00;;;;;;;23.02;13.15;;;;;;;;;;5051942;28;20048;-41
2023/01/02 09:29:26;;;;;;;29.45;12.20;;;;;;;;;;5051949;28;20056;-41
2023/01/02 09:31:51;;;;;;;24.05;12.07;;;;;;;;;;5051969;28;20044;-41
2023/01/02 09:34:17;;;;;;;28.13;13.80;;;;;;;;;;5050522;28;20032;-41
2023/01/02 09:36:42;;;;;;;26.92;12.32;;;;;;;;;;5051887;28;20032;-41
2023/01/02 09:39:08;;;;;;;25.05;13.70;;;;;;;;;;5051863;28;20039;-41
2023/01/02 09:41:45;;;;;;;25.52;12.48;;;;;;;;;;5051591;28;20070;-41
2023/01/02 09:44:20;;;;;;;30.20;13.20;;;;;;;;;;5051399;28;20126;-41
2023/01/02 09:46:48;;;;;;;18.63;10.18;;;;;;;;;;5052098;28;20033;-42
2023/01/02 09:49:18;;;;;;;22.38;12.27;;;;;;;;;;5051584;28;20021;-42
2023/01/02 09:51:44;;;;;;;19.02;11.55;;;;;;;;;;5051949;28;20029;-42
2023/01/02 09:54:14;;;;;;;22.85;13.57;;;;;;;;;;5051916;28;20090;-41
2023/01/02 09:56:41;;;;;;;23.05;12.38;;;;;;;;;;5050282;28;20063;-42
2023/01/02 09:59:06;;;;;;;22.20;12.05;;;;;;;;;;5051885;28;20418;-41
2023/01/02 10:01:39;;;;;;;26.90;12.35;;;;;;;;;;5051235;28;20049;-42
2023/01/02 10:04:25;;;;;;;23.30;10.85;;;;;;;;;;5051800;28;20029;-42
2023/01/02 10:07:03;;;;;;;21.95;11.13;;;;;;;;;;5040085;28;20079;-41
2023/01/02 10:09:35;;;;;;;17.02;9.02;;;;;;;;;;5051316;28;20475;-41
2023/01/02 10:12:07;;;;;;;21.25;11.60;;;;;;;;;;5051406;28;20093;-41
2023/01/02 10:14:33;;;;;;;;;;;;;;;;;;5051721;28;20432;-42
2023/01/02 10:16:59;;;;;;;19.08;10.60;;;;;;;;;;5051270;28;19995;-41
2023/01/02 10:19:39;;;;;;;17.73;9.55;;;;;;;;;;5051261;28;20024;-41
2023/01/02 10:22:07;;;;;;;19.63;10.98;;;;;;;;;;5051480;28;20139;-41
2023/01/02 10:24:32;;;;;;;21.45;10.60;;;;;;;;;;5051286;28;20482;-42
2023/01/02 10:26:58;;;;;;;22.60;12.27;;;;;;;;;;5051566;28;20036;-41
2023/01/02 10:29:32;;;;;;;18.73;9.45;;;;;;;;;;5051155;28;20104;-41
2023/01/02 10:31:59;;;;;;;19.15;10.32;;;;;;;;;;5051201;28;20033;-42
2023/01/02 10:34:32;;;;;;;22.73;11.55;;;;;;;;;;5051049;28;20112;-42
2023/01/02 10:36:58;;;;;;;16.23;8.75;;;;;;;;;;5051160;28;20638;-42
2023/01/02 10:39:26;;;;;;;19.42;9.45;;;;;;;;;;5051379;28;20024;-44
2023/01/02 10:41:53;;;;;;;18.17;8.82;;;;;;;;;;5051072;28;20047;-41
2023/01/02 10:44:26;;;;;;;21.50;9.63;;;;;;;;;;5051077;28;20029;-41
2023/01/02 10:46:53;;;;;;;17.80;10.88;;;;;;;;;;5051282;28;20378;-41
2023/01/02 10:49:19;;;;;;;17.10;9.18;;;;;;;;;;5051269;28;20018;-41
2023/01/02 10:51:48;;;;;;;17.50;9.93;;;;;;;;;;5051093;28;20079;-42
2023/01/02 10:54:14;;;;;;;19.50;9.02;;;;;;;;;;5050952;28;20493;-42
2023/01/02 10:56:40;;;;;;;17.65;9.82;;;;;;;;;;5054836;28;20029;-42
2023/01/02 10:59:25;;;;;;;20.70;10.85;;;;;;;;;;5054826;28;20035;-45
2023/01/02 11:01:55;;;;;;;22.08;9.63;;;;;;;;;;5054320;28;20060;-41
2023/01/02 11:04:23;;;;;;;23.15;11.27;;;;;;;;;;5054652;28;20032;-42
2023/01/02 11:06:50;;;;;;;15.20;8.77;;;;;;;;;;5054695;28;20029;-41
2023/01/02 11:09:25;;;;;;;21.05;9.15;;;;;;;;;;5054722;28;20029;-42
2023/01/02 11:11:51;;;;;;;16.48;9.23;;;;;;;;;;5054660;28;20033;-42
2023/01/02 11:14:20;;;;;;;19.13;9.18;;;;;;;;;;5054430;28;20479;-41
2023/01/02 11:16:46;;;;;;;18.33;9.13;;;;;;;;;;5054523;28;20392;-41
2023/01/02 11:19:19;;;;;;;17.83;8.80;;;;;;;;;;5054764;28;20021;-41
2023/01/02 11:21:45;;;;;;;15.15;8.73;;;;;;;;;;5054604;28;20033;-41
2023/01/02 11:24:15;;;;;;;16.23;9.65;;;;;;;;;;5054320;28;20025;-42
2023/01/02 11:26:41;;;;;;;17.35;9.25;;;;;;;;;;5053349;28;20025;-41
2023/01/02 11:29:12;;;;;;;19.90;10.25;;;;;;;;;;5054264;28;20029;-41
2023/01/02 11:31:45;;;;;;;15.23;8.80;;;;;;;;;;5054490;28;20191;-42
2023/01/02 11:34:18;;;;;;;13.20;8.90;;;;;;;;;;5054156;28;20037;-42
2023/01/02 11:36:45;;;;;;;13.43;8.55;;;;;;;;;;5054400;28;20400;-41
2023/01/02 11:39:21;;;;;;;17.80;9.27;;;;;;;;;;5054381;28;20021;-42
2023/01/02 11:44:33;;;;;;;16.92;9.88;;;;;;;;;;5053878;28;20572;-41
2023/01/02 11:46:59;;;;;;;15.32;8.18;;;;;;;;;;5054264;28;20482;-41
2023/01/02 11:49:27;;;;;;;13.63;8.32;;;;;;;;;;5054062;28;20033;-41
2023/01/02 11:51:57;;;;;;;13.32;8.20;;;;;;;;;;5053895;28;20102;-41
2023/01/02 11:54:27;;;;;;;15.50;7.93;;;;;;;;;;5052492;28;20040;-41
2023/01/02 11:56:53;;;;;;;20.10;9.10;;;;;;;;;;5053995;28;20425;-42
2023/01/02 11:59:22;;;;;;;16.10;8.70;;;;;;;;;;5053779;28;20024;-41
2023/01/02 12:01:50;;;;;;;14.98;6.03;;;;;;;;;;5053610;28;20059;-41
2023/01/02 12:04:16;;;;;;;15.18;9.25;;;;;;;;;;5053580;28;20161;-41
2023/01/02 12:07:00;;;;;;;12.35;6.65;;;;;;;;;;5052792;28;20139;-42
2023/01/02 12:09:38;;;;;;;13.23;7.25;;;;;;;;;;5053528;28;20029;-41
2023/01/02 12:12:09;;;;;;;15.05;8.32;;;;;;;;;;5053753;28;20123;-42
2023/01/02 12:14:54;;;;;;;17.98;7.70;;;;;;;;;;5052473;28;20025;-42
2023/01/02 12:17:26;;;;;;;15.43;7.90;;;;;;;;;;5053639;28;20526;-42
2023/01/02 12:19:57;;;;;;;24.48;9.32;;;;;;;;;;5053413;28;20021;-42
2023/01/02 12:22:30;;;;;;;16.75;9.38;;;;;;;;;;5053131;28;20073;-41
2023/01/02 12:25:11;;;;;;;17.95;9.82;;;;;;;;;;5053452;28;20025;-42
2023/01/02 12:27:46;;;;;;;15.95;7.75;;;;;;;;;;5053227;28;20032;-41
2023/01/02 12:30:15;;;;;;;17.77;7.47;;;;;;;;;;5053170;28;20025;-42
2023/01/02 12:33:03;;;;;;;14.85;7.97;;;;;;;;;;5053042;28;20067;-41
2023/01/02 12:35:35;;;;;;;12.70;6.80;;;;;;;;;;5053220;28;20025;-42
2023/01/02 12:38:06;;;;;;;15.30;8.27;;;;;;;;;;5053370;28;20090;-42
2023/01/02 12:40:35;;;;;;;9.35;6.47;;;;;;;;;;5052927;28;20265;-41
2023/01/02 12:43:20;;;;;;;13.65;7.47;;;;;;;;;;5052920;28;20040;-41
2023/01/02 12:45:46;;;;;;;16.20;7.70;;;;;;;;;;5041380;28;20073;-42
2023/01/02 12:48:26;;;;;;;11.90;6.70;;;;;;;;;;5052823;28;20059;-41
2023/01/02 12:51:10;;;;;;;16.77;7.45;;;;;;;;;;5053089;28;20375;-41
2023/01/02 12:53:54;;;;;;;14.85;7.88;;;;;;;;;;5052575;28;20041;-41
2023/01/02 12:56:32;;;;;;;15.77;7.65;;;;;;;;;;5052910;28;20029;-41
2023/01/02 12:59:17;;;;;;;10.02;6.30;;;;;;;;;;5052769;28;20116;-41
2023/01/02 13:01:49;;;;;;;9.35;6.28;;;;;;;;;;5052239;28;20049;-41
2023/01/02 13:04:41;;;;;;;15.10;7.97;;;;;;;;;;5052819;28;20037;-42
2023/01/02 13:07:23;;;;;;;14.15;8.10;;;;;;;;;;5051174;28;20493;-41
2023/01/02 13:09:49;;;;;;;11.57;6.78;;;;;;;;;;5052653;28;20037;-42
2023/01/02 13:12:16;;;;;;;15.18;7.68;;;;;;;;;;5052364;28;20106;-41
2023/01/02 13:14:42;;;;;;;12.73;7.65;;;;;;;;;;5052145;28;20041;-42
2023/01/02 13:17:28;;;;;;;11.57;5.95;;;;;;;;;;5052536;28;20523;-42
2023/01/02 13:19:56;;;;;;;15.05;7.63;;;;;;;;;;5051187;28;20041;-41
2023/01/02 13:22:31;;;;;;;14.25;8.32;;;;;;;;;;5051958;28;20025;-41
2023/01/02 13:24:57;;;;;;;9.70;7.13;;;;;;;;;;5052099;28;20037;-41
2023/01/02 13:27:23;;;;;;;9.90;6.07;;;;;;;;;;5052343;28;20028;-42
2023/01/02 13:29:51;;;;;;;13.10;6.90;;;;;;;;;;5052005;28;20032;-41
2023/01/02 13:32:24;;;;;;;14.15;7.63;;;;;;;;;;5052262;28;20017;-41
2023/01/02 13:34:51;;;;;;;15.05;7.70;;;;;;;;;;5051909;28;20032;-41
2023/01/02 13:37:27;;;;;;;12.52;6.90;;;;;;;;;;5051866;28;20053;-41
2023/01/02 13:39:54;;;;;;;18.08;7.60;;;;;;;;;;5052016;28;20021;-41
2023/01/02 13:45:22;;;;;;;17.70;9.38;;;;;;;;;;5051996;28;20028;-41
2023/01/02 13:47:58;;;;;;;8.25;5.82;;;;;;;;;;5052019;28;20040;-42
2023/01/02 13:50:23;;;;;;;10.88;6.65;;;;;;;;;;5051658;28;20083;-41
2023/01/02 13:53:07;;;;;;;17.25;8.43;;;;;;;;;;5051788;28;20499;-41
2023/01/02 13:55:39;;;;;;;17.02;6.32;;;;;;;;;;5051534;28;20028;-41
2023/01/02 13:58:11;;;;;;;12.18;6.78;;;;;;;;;;5051531;28;20032;-41
2023/01/02 14:00:37;;;;;;;12.52;7.45;;;;;;;;;;5050089;28;20041;-41
2023/01/02 14:03:15;;;;;;;12.00;6.78;;;;;;;;;;5051474;28;20127;-42
2023/01/02 14:05:55;;;;;;;12.95;7.57;;;;;;;;;;5051564;28;20025;-41
2023/01/02 14:08:29;;;;;;;10.50;6.50;;;;;;;;;;5051405;28;20032;-41
2023/01/02 14:10:59;;;;;;;13.73;7.03;;;;;;;;;;5051515;28;20104;-41
2023/01/02 14:13:28;;;;;;;7.55;5.20;;;;;;;;;;5051339;28;20082;-41
2023/01/02 14:16:06;;;;;;;12.48;5.75;;;;;;;;;;5051547;28;20040;-41
2023/01/02 14:18:31;;;;;;;14.40;5.47;;;;;;;;;;5051280;28;20497;-41
2023/01/02 14:20:56;;;;;;;14.07;6.85;;;;;;;;;;5051325;28;20021;-42
2023/01/02 14:23:25;;;;;;;8.57;5.85;;;;;;;;;;5049906;28;20045;-41
2023/01/02 14:25:51;;;;;;;13.50;5.75;;;;;;;;;;5051222;28;20120;-41
2023/01/02 14:28:21;;;;;;;15.02;7.00;;;;;;;;;;5051310;28;20112;-41
2023/01/02 14:30:47;;;;;;;11.85;7.95;;;;;;;;;;5052742;28;20482;-42
2023/01/02 14:33:15;;;;;;;12.07;7.72;;;;;;;;;;5055386;28;20111;-42
2023/01/02 14:35:54;;;;;;;10.52;5.80;;;;;;;;;;5055169;28;20025;-41